createdAt,value
2022-09-25T00:01:00.380Z,7.76
2022-09-25T00:03:28.583Z,7.74
2022-09-25T00:06:05.515Z,7.62
2022-09-25T00:08:33.264Z,7.62
2022-09-25T00:10:59.879Z,7.60
2022-09-25T00:13:26.794Z,7.58
2022-09-25T00:15:56.078Z,7.54
2022-09-25T00:18:43.243Z,7.57
2022-09-25T00:21:14.618Z,7.54
2022-09-25T00:23:44.767Z,7.55
2022-09-25T00:26:13.369Z,7.38
2022-09-25T00:28:41.118Z,7.28
2022-09-25T00:31:09.450Z,7.43
2022-09-25T00:33:37.055Z,7.24
2022-09-25T00:36:09.266Z,7.27
2022-09-25T00:38:37.120Z,7.14
2022-09-25T00:41:06.149Z,6.98
2022-09-25T00:43:40.067Z,7.07
2022-09-25T00:46:25.403Z,7.03
2022-09-25T00:48:58.539Z,6.94
2022-09-25T00:51:30.413Z,6.82
2022-09-25T00:54:01.331Z,6.84
2022-09-25T00:56:34.609Z,6.69
2022-09-25T00:59:01.244Z,6.63
2022-09-25T01:01:27.990Z,6.62
2022-09-25T01:03:56.111Z,6.80
2022-09-25T01:06:26.212Z,6.83
2022-09-25T01:08:53.116Z,6.86
2022-09-25T01:11:19.766Z,6.86
2022-09-25T01:13:46.485Z,6.88
2022-09-25T01:16:27.306Z,6.96
2022-09-25T01:18:53.870Z,6.97
2022-09-25T01:21:38.650Z,6.92
2022-09-25T01:24:19.133Z,6.78
2022-09-25T01:27:20.109Z,6.81
2022-09-25T01:30:11.572Z,6.81
2022-09-25T01:32:57.695Z,6.53
2022-09-25T01:35:33.407Z,6.60
2022-09-25T01:38:31.573Z,6.69
2022-09-25T01:41:09.951Z,6.63
2022-09-25T01:43:57.672Z,6.65
2022-09-25T01:46:29.134Z,6.57
2022-09-25T01:49:01.940Z,6.52
2022-09-25T01:51:51.822Z,6.46
2022-09-25T01:54:24.940Z,6.23
2022-09-25T01:56:57.556Z,6.26
2022-09-25T01:59:36.110Z,6.24
2022-09-25T02:02:06.898Z,6.24
2022-09-25T02:04:41.898Z,6.25
2022-09-25T02:07:12.949Z,6.34
2022-09-25T02:09:45.936Z,6.17
2022-09-25T02:12:31.273Z,6.18
2022-09-25T02:15:03.619Z,6.34
2022-09-25T02:17:53.465Z,6.33
2022-09-25T02:20:33.323Z,6.08
2022-09-25T02:23:11.452Z,6.05
2022-09-25T02:25:45.190Z,6.05
2022-09-25T02:28:12.089Z,6.17
2022-09-25T02:30:38.786Z,6.21
2022-09-25T02:33:05.410Z,6.19
2022-09-25T02:35:33.090Z,6.20
2022-09-25T02:38:00.449Z,6.09
2022-09-25T02:40:41.842Z,6.12
2022-09-25T02:43:31.472Z,6.08
2022-09-25T02:46:35.710Z,6.07
2022-09-25T02:49:40.299Z,6.01
2022-09-25T02:52:11.412Z,6.12
2022-09-25T02:54:45.758Z,6.28
2022-09-25T02:57:32.371Z,6.28
2022-09-25T03:00:04.614Z,6.34
2022-09-25T03:02:32.893Z,6.41
2022-09-25T03:05:01.212Z,6.40
2022-09-25T03:07:27.995Z,6.34
2022-09-25T03:09:57.887Z,6.18
2022-09-25T03:12:24.522Z,6.12
2022-09-25T03:14:51.115Z,6.01
2022-09-25T03:17:17.696Z,6.01
2022-09-25T03:19:44.297Z,6.06
2022-09-25T03:22:12.106Z,6.05
2022-09-25T03:24:38.813Z,6.03
2022-09-25T03:27:05.400Z,5.81
2022-09-25T03:29:32.249Z,5.96
2022-09-25T03:31:58.899Z,5.77
2022-09-25T03:34:25.599Z,5.72
2022-09-25T03:36:52.212Z,5.85
2022-09-25T03:39:18.873Z,5.70
2022-09-25T03:41:45.634Z,5.88
2022-09-25T03:44:12.450Z,5.80
2022-09-25T03:46:39.335Z,5.80
2022-09-25T03:49:06.109Z,5.72
2022-09-25T03:51:33.673Z,5.73
2022-09-25T03:54:00.273Z,5.85
2022-09-25T03:56:29.026Z,5.77
2022-09-25T03:58:56.230Z,5.73
2022-09-25T04:01:24.956Z,5.72
2022-09-25T04:03:52.040Z,5.67
2022-09-25T04:06:22.657Z,5.49
2022-09-25T04:08:50.091Z,5.49
2022-09-25T04:11:18.236Z,5.43
2022-09-25T04:13:45.564Z,5.34
2022-09-25T04:16:13.633Z,5.47
2022-09-25T04:18:42.954Z,5.54
2022-09-25T04:21:11.972Z,5.60
2022-09-25T04:23:39.217Z,5.49
2022-09-25T04:26:07.537Z,5.46
2022-09-25T04:28:35.651Z,5.38
2022-09-25T04:31:03.868Z,5.50
2022-09-25T04:33:48.820Z,5.60
2022-09-25T04:36:18.164Z,5.68
2022-09-25T04:38:45.026Z,5.70
2022-09-25T04:41:11.849Z,5.71
2022-09-25T04:43:40.949Z,5.89
2022-09-25T04:46:08.921Z,5.95
2022-09-25T04:48:36.030Z,6.04
2022-09-25T04:51:03.823Z,6.19
2022-09-25T04:53:31.674Z,6.24
2022-09-25T04:56:03.190Z,6.33
2022-09-25T04:58:29.975Z,6.39
2022-09-25T05:01:00.976Z,6.44
2022-09-25T05:03:27.871Z,6.61
2022-09-25T05:05:54.478Z,6.75
2022-09-25T05:08:21.066Z,6.90
2022-09-25T05:10:47.686Z,7.10
2022-09-25T05:13:14.568Z,7.55
2022-09-25T05:15:41.146Z,8.18
2022-09-25T05:18:15.829Z,9.02
2022-09-25T05:20:42.719Z,10.09
2022-09-25T05:23:09.304Z,10.41
2022-09-25T05:25:36.018Z,10.88
2022-09-25T05:28:03.171Z,11.58
2022-09-25T05:30:31.996Z,12.05
2022-09-25T05:32:59.236Z,12.12
2022-09-25T05:35:29.819Z,12.29
2022-09-25T05:37:56.470Z,12.16
2022-09-25T05:40:24.221Z,12.01
2022-09-25T05:42:52.129Z,11.65
2022-09-25T05:45:20.884Z,11.58
2022-09-25T05:47:47.485Z,11.78
2022-09-25T05:50:17.952Z,11.74
2022-09-25T05:52:44.573Z,11.42
2022-09-25T05:55:11.226Z,11.74
2022-09-25T05:57:38.344Z,11.87
2022-09-25T06:00:08.861Z,11.69
2022-09-25T06:02:35.831Z,11.45
2022-09-25T06:05:02.473Z,11.38
2022-09-25T06:07:29.095Z,11.47
2022-09-25T06:09:55.690Z,11.76
2022-09-25T06:12:24.916Z,12.13
2022-09-25T06:14:52.576Z,12.36
2022-09-25T06:17:20.058Z,12.47
2022-09-25T06:19:46.964Z,12.85
2022-09-25T06:22:13.905Z,13.17
2022-09-25T06:24:40.794Z,13.51
2022-09-25T06:27:08.239Z,13.80
2022-09-25T06:29:35.329Z,13.83
2022-09-25T06:32:03.190Z,13.48
2022-09-25T06:34:29.877Z,13.45
2022-09-25T06:36:56.521Z,13.31
2022-09-25T06:39:23.074Z,12.72
2022-09-25T06:41:53.553Z,12.79
2022-09-25T06:44:21.132Z,13.13
2022-09-25T06:46:54.580Z,13.47
2022-09-25T06:49:22.006Z,13.86
2022-09-25T06:51:51.070Z,13.92
2022-09-25T06:54:18.238Z,13.79
2022-09-25T06:56:49.468Z,14.32
2022-09-25T06:59:16.446Z,14.96
2022-09-25T07:01:43.226Z,15.44
2022-09-25T07:04:10.181Z,15.74
2022-09-25T07:06:37.419Z,15.77
2022-09-25T07:09:04.337Z,15.89
2022-09-25T07:11:34.211Z,16.06
2022-09-25T07:14:01.071Z,16.27
2022-09-25T07:16:30.258Z,16.40
2022-09-25T07:19:02.837Z,16.62
2022-09-25T07:21:32.220Z,16.67
2022-09-25T07:23:59.158Z,16.73
2022-09-25T07:26:28.491Z,17.13
2022-09-25T07:29:04.229Z,17.14
2022-09-25T07:31:33.257Z,17.42
2022-09-25T07:34:03.048Z,18.14
2022-09-25T07:36:29.891Z,17.86
2022-09-25T07:38:56.538Z,17.62
2022-09-25T07:41:23.872Z,17.17
2022-09-25T07:44:17.577Z,16.59
2022-09-25T07:46:43.643Z,16.69
2022-09-25T07:49:10.456Z,16.28
2022-09-25T07:51:37.223Z,16.06
2022-09-25T07:54:04.123Z,15.96
2022-09-25T07:56:30.804Z,15.56
2022-09-25T07:58:57.515Z,15.58
2022-09-25T08:01:24.433Z,15.89
2022-09-25T08:03:51.331Z,16.03
2022-09-25T08:06:18.174Z,16.21
2022-09-25T08:08:44.992Z,16.17
2022-09-25T08:11:14.571Z,16.24
2022-09-25T08:13:42.699Z,16.26
2022-09-25T08:16:12.362Z,16.40
2022-09-25T08:18:41.951Z,16.42
2022-09-25T08:21:10.391Z,16.66
2022-09-25T08:23:37.194Z,16.76
2022-09-25T08:26:03.947Z,16.56
2022-09-25T08:28:30.725Z,16.44
2022-09-25T08:31:03.368Z,16.68
2022-09-25T08:33:31.276Z,16.76
2022-09-25T08:36:07.743Z,16.59
2022-09-25T08:38:34.611Z,16.63
2022-09-25T08:41:16.882Z,16.87
2022-09-25T08:43:48.845Z,16.96
2022-09-25T08:46:41.355Z,17.15
2022-09-25T08:49:11.527Z,17.11
2022-09-25T08:51:50.026Z,17.27
2022-09-25T08:54:22.931Z,17.66
2022-09-25T08:56:53.586Z,17.74
2022-09-25T08:59:32.978Z,17.83
2022-09-25T09:02:11.431Z,18.07
2022-09-25T09:04:45.396Z,18.27
2022-09-25T09:07:27.685Z,18.34
2022-09-25T09:10:21.766Z,18.58
2022-09-25T09:12:54.278Z,18.85
2022-09-25T09:15:39.707Z,18.76
2022-09-25T09:18:21.929Z,17.89
2022-09-25T09:20:53.749Z,18.58
2022-09-25T09:23:32.886Z,18.63
2022-09-25T09:26:02.334Z,18.75
2022-09-25T09:28:59.598Z,18.78
2022-09-25T09:32:04.530Z,18.70
2022-09-25T09:35:06.841Z,18.73
2022-09-25T09:37:51.647Z,18.54
2022-09-25T09:40:39.796Z,18.90
2022-09-25T09:43:34.914Z,19.35
2022-09-25T09:46:23.069Z,19.79
2022-09-25T09:49:04.976Z,19.66
2022-09-25T09:51:47.349Z,19.75
2022-09-25T09:54:25.245Z,19.88
2022-09-25T09:56:55.521Z,19.75
2022-09-25T09:59:40.112Z,19.20
2022-09-25T10:02:29.782Z,20.00
2022-09-25T10:05:04.010Z,20.28
2022-09-25T10:07:34.227Z,20.45
2022-09-25T10:10:02.055Z,20.91
2022-09-25T10:12:33.443Z,21.27
2022-09-25T10:15:07.530Z,21.19
2022-09-25T10:17:38.153Z,21.21
2022-09-25T10:20:17.559Z,21.11
2022-09-25T10:22:46.882Z,21.65
2022-09-25T10:25:14.092Z,21.78
2022-09-25T10:27:49.202Z,21.63
2022-09-25T10:30:22.077Z,21.46
2022-09-25T10:33:11.832Z,21.44
2022-09-25T10:35:38.545Z,21.64
2022-09-25T10:38:16.869Z,21.64
2022-09-25T10:40:47.854Z,21.14
2022-09-25T10:43:14.941Z,21.00
2022-09-25T10:45:41.926Z,21.23
2022-09-25T10:48:55.559Z,21.47
2022-09-25T10:51:23.805Z,21.52
2022-09-25T10:54:11.232Z,21.63
2022-09-25T10:56:39.282Z,21.51
2022-09-25T10:59:23.475Z,21.35
2022-09-25T11:01:53.895Z,22.00
2022-09-25T11:04:29.820Z,22.26
2022-09-25T11:07:08.259Z,22.40
2022-09-25T11:09:36.940Z,22.68
2022-09-25T11:12:13.966Z,22.70
2022-09-25T11:14:55.478Z,22.52
2022-09-25T11:17:43.101Z,22.45
2022-09-25T11:20:16.776Z,22.36
2022-09-25T11:22:55.511Z,22.17
2022-09-25T11:25:33.641Z,22.48
2022-09-25T11:28:35.892Z,22.79
2022-09-25T11:31:16.150Z,23.06
2022-09-25T11:33:53.089Z,23.22
2022-09-25T11:36:26.309Z,23.06
2022-09-25T11:39:19.472Z,23.14
2022-09-25T11:41:52.003Z,23.42
2022-09-25T11:44:35.081Z,23.55
2022-09-25T11:47:12.550Z,23.78
2022-09-25T11:49:41.536Z,23.50
2022-09-25T11:52:28.168Z,23.14
2022-09-25T11:55:04.478Z,23.52
2022-09-25T11:58:04.766Z,23.11
2022-09-25T12:00:55.125Z,23.13
2022-09-25T12:03:43.743Z,23.19
2022-09-25T12:06:49.195Z,22.81
2022-09-25T12:09:28.807Z,23.36
2022-09-25T12:12:04.445Z,23.29
2022-09-25T12:14:40.200Z,23.40
2022-09-25T12:17:15.245Z,23.41
2022-09-25T12:19:52.346Z,23.34
2022-09-25T12:22:57.725Z,23.47
2022-09-25T12:25:36.038Z,23.43
2022-09-25T12:28:16.639Z,23.35
2022-09-25T12:31:06.415Z,23.56
2022-09-25T12:33:45.474Z,23.61
2022-09-25T12:36:21.371Z,23.65
2022-09-25T12:38:53.268Z,24.10
2022-09-25T12:41:42.503Z,24.12
2022-09-25T12:44:27.455Z,23.69
2022-09-25T12:47:02.184Z,23.59
2022-09-25T12:49:44.861Z,24.03
2022-09-25T12:52:25.121Z,23.87
2022-09-25T12:55:19.417Z,23.89
2022-09-25T12:57:49.445Z,24.17
2022-09-25T13:00:21.587Z,24.46
2022-09-25T13:03:15.120Z,24.27
2022-09-25T13:05:47.833Z,23.61
2022-09-25T13:08:27.806Z,23.70
2022-09-25T13:11:15.056Z,24.12
2022-09-25T13:14:00.107Z,24.09
2022-09-25T13:19:15.081Z,23.93
2022-09-25T13:21:43.351Z,23.82
2022-09-25T13:24:50.466Z,24.09
2022-09-25T13:30:32.291Z,24.43
2022-09-25T13:33:15.422Z,24.09
2022-09-25T13:35:43.064Z,24.06
2022-09-25T13:38:38.533Z,23.90
2022-09-25T13:41:27.519Z,23.94
2022-09-25T13:44:42.796Z,24.33
2022-09-25T13:47:25.442Z,24.29
2022-09-25T13:50:11.235Z,23.97
2022-09-25T13:52:41.805Z,24.03
2022-09-25T13:55:22.266Z,23.71
2022-09-25T13:57:59.127Z,23.46
2022-09-25T14:00:37.514Z,23.68
2022-09-25T14:03:12.269Z,23.38
2022-09-25T14:05:48.380Z,24.03
2022-09-25T14:08:18.194Z,23.41
2022-09-25T14:10:50.112Z,23.00
2022-09-25T14:13:24.182Z,23.24
2022-09-25T14:15:55.554Z,23.21
2022-09-25T14:18:55.217Z,23.02
2022-09-25T14:21:24.001Z,22.78
2022-09-25T14:23:59.159Z,22.94
2022-09-25T14:26:29.548Z,22.90
2022-09-25T14:29:04.404Z,22.67
2022-09-25T14:31:57.229Z,22.66
2022-09-25T14:34:39.268Z,23.43
2022-09-25T14:37:54.126Z,23.76
2022-09-25T14:40:49.891Z,23.83
2022-09-25T14:43:43.883Z,23.56
2022-09-25T14:46:30.383Z,23.41
2022-09-25T14:49:27.709Z,23.53
2022-09-25T14:52:20.416Z,23.27
2022-09-25T14:54:55.588Z,23.11
2022-09-25T14:57:31.880Z,23.24
2022-09-25T15:00:12.128Z,22.47
2022-09-25T15:02:45.617Z,22.89
2022-09-25T15:05:27.717Z,22.97
2022-09-25T15:07:59.154Z,22.87
2022-09-25T15:10:29.024Z,22.81
2022-09-25T15:13:20.149Z,22.72
2022-09-25T15:16:10.506Z,22.59
2022-09-25T15:18:39.897Z,22.46
2022-09-25T15:21:26.075Z,22.24
2022-09-25T15:23:55.004Z,21.75
2022-09-25T15:26:22.735Z,21.86
2022-09-25T15:28:50.027Z,21.73
2022-09-25T15:31:16.853Z,21.52
2022-09-25T15:33:44.434Z,21.50
2022-09-25T15:36:20.405Z,21.50
2022-09-25T15:38:53.991Z,21.11
2022-09-25T15:41:21.975Z,21.08
2022-09-25T15:43:50.215Z,21.01
2022-09-25T15:46:34.753Z,20.89
2022-09-25T15:49:02.743Z,20.63
2022-09-25T15:51:33.754Z,20.53
2022-09-25T15:54:04.512Z,20.49
2022-09-25T15:56:53.501Z,20.45
2022-09-25T15:59:25.485Z,20.23
2022-09-25T16:02:11.369Z,20.16
2022-09-25T16:04:49.443Z,20.00
2022-09-25T16:07:25.236Z,19.89
2022-09-25T16:09:55.690Z,19.71
2022-09-25T16:12:27.718Z,19.68
2022-09-25T16:14:58.722Z,19.57
2022-09-25T16:17:33.077Z,19.41
2022-09-25T16:20:26.595Z,19.12
2022-09-25T16:22:59.770Z,19.21
2022-09-25T16:25:31.110Z,19.16
2022-09-25T16:28:21.517Z,18.84
2022-09-25T16:31:01.949Z,18.71
2022-09-25T16:33:33.330Z,18.60
2022-09-25T16:36:15.878Z,18.48
2022-09-25T16:39:04.185Z,18.10
2022-09-25T16:41:31.297Z,18.13
2022-09-25T16:44:18.385Z,17.99
2022-09-25T16:47:00.478Z,17.94
2022-09-25T16:49:27.132Z,17.81
2022-09-25T16:51:55.773Z,17.57
2022-09-25T16:54:31.073Z,17.70
2022-09-25T16:56:59.465Z,17.78
2022-09-25T16:59:28.569Z,17.69
2022-09-25T17:02:11.117Z,17.59
2022-09-25T17:04:39.054Z,17.62
2022-09-25T17:07:14.534Z,17.65
2022-09-25T17:09:41.382Z,17.68
2022-09-25T17:12:20.859Z,17.84
2022-09-25T17:14:49.356Z,17.96
2022-09-25T17:17:24.052Z,18.04
2022-09-25T17:19:50.879Z,18.17
2022-09-25T17:22:18.139Z,18.17
2022-09-25T17:24:45.039Z,18.08
2022-09-25T17:27:18.231Z,18.17
2022-09-25T17:29:46.875Z,18.19
2022-09-25T17:32:15.592Z,18.28
2022-09-25T17:34:45.757Z,18.29
2022-09-25T17:37:13.074Z,18.22
2022-09-25T17:39:39.947Z,18.24
2022-09-25T17:42:06.845Z,18.15
2022-09-25T17:44:36.800Z,18.05
2022-09-25T17:47:04.543Z,17.96
2022-09-25T17:49:34.000Z,17.85
2022-09-25T17:52:00.904Z,17.75
2022-09-25T17:54:33.171Z,17.69
2022-09-25T17:57:00.062Z,17.63
2022-09-25T17:59:26.932Z,17.55
2022-09-25T18:01:53.930Z,17.43
2022-09-25T18:04:24.227Z,17.35
2022-09-25T18:06:52.097Z,17.27
2022-09-25T18:09:19.254Z,17.14
2022-09-25T18:11:46.269Z,17.02
2022-09-25T18:14:15.017Z,17.07
2022-09-25T18:16:45.611Z,17.03
2022-09-25T18:19:38.468Z,16.96
2022-09-25T18:22:19.290Z,17.01
2022-09-25T18:24:59.550Z,17.12
2022-09-25T18:27:29.792Z,17.18
2022-09-25T18:29:56.592Z,17.18
2022-09-25T18:32:24.383Z,17.17
2022-09-25T18:34:51.677Z,17.20
2022-09-25T18:37:18.486Z,17.30
2022-09-25T18:39:48.198Z,17.26
2022-09-25T18:42:15.143Z,17.36
2022-09-25T18:44:43.171Z,17.30
2022-09-25T18:47:14.355Z,17.28
2022-09-25T18:49:44.015Z,17.31
2022-09-25T18:52:11.894Z,17.14
2022-09-25T18:54:47.993Z,16.94
2022-09-25T18:57:18.750Z,16.65
2022-09-25T18:59:48.464Z,16.28
2022-09-25T19:02:41.320Z,15.82
2022-09-25T19:05:09.189Z,15.70
2022-09-25T19:07:40.401Z,16.05
2022-09-25T19:10:09.850Z,16.25
2022-09-25T19:12:36.828Z,16.46
2022-09-25T19:15:05.045Z,16.66
2022-09-25T19:17:34.210Z,16.75
2022-09-25T19:20:01.295Z,16.77
2022-09-25T19:22:30.967Z,16.76
2022-09-25T19:24:57.914Z,16.74
2022-09-25T19:27:27.562Z,16.54
2022-09-25T19:29:55.153Z,16.56
2022-09-25T19:32:32.453Z,16.45
2022-09-25T19:34:59.956Z,16.41
2022-09-25T19:37:30.074Z,16.15
2022-09-25T19:40:15.672Z,16.05
2022-09-25T19:42:42.630Z,16.02
2022-09-25T19:45:10.474Z,15.94
2022-09-25T19:47:37.306Z,15.83
2022-09-25T19:50:08.880Z,15.66
2022-09-25T19:52:36.697Z,15.65
2022-09-25T19:55:03.784Z,15.57
2022-09-25T19:57:30.683Z,15.48
2022-09-25T19:59:57.716Z,15.40
2022-09-25T20:02:24.679Z,14.96
2022-09-25T20:04:51.565Z,14.84
2022-09-25T20:07:18.403Z,14.71
2022-09-25T20:09:45.300Z,14.33
2022-09-25T20:12:12.211Z,14.11
2022-09-25T20:14:40.303Z,14.18
2022-09-25T20:17:11.465Z,14.23
2022-09-25T20:19:38.334Z,14.22
2022-09-25T20:22:05.127Z,14.16
2022-09-25T20:24:31.952Z,14.22
2022-09-25T20:26:58.711Z,14.26
2022-09-25T20:29:25.778Z,14.15
2022-09-25T20:31:52.618Z,14.09
2022-09-25T20:34:21.155Z,14.06
2022-09-25T20:36:48.093Z,13.76
2022-09-25T20:39:20.617Z,13.67
2022-09-25T20:41:48.825Z,13.64
2022-09-25T20:44:15.722Z,13.73
2022-09-25T20:46:43.392Z,13.75
2022-09-25T20:49:13.087Z,13.52
2022-09-25T20:51:41.361Z,13.34
2022-09-25T20:54:09.848Z,13.29
2022-09-25T20:56:38.533Z,13.15
2022-09-25T20:59:05.626Z,13.27
2022-09-25T21:01:34.951Z,13.30
2022-09-25T21:04:03.318Z,13.28
2022-09-25T21:06:32.330Z,13.31
2022-09-25T21:09:01.338Z,13.15
2022-09-25T21:11:30.609Z,13.21
2022-09-25T21:13:59.425Z,13.05
2022-09-25T21:16:28.743Z,13.14
2022-09-25T21:18:57.981Z,13.12
2022-09-25T21:21:26.320Z,13.13
2022-09-25T21:23:54.769Z,12.99
2022-09-25T21:26:23.888Z,13.07
2022-09-25T21:28:52.995Z,13.18
2022-09-25T21:31:22.444Z,13.25
2022-09-25T21:33:53.115Z,13.28
2022-09-25T21:36:21.033Z,13.32
2022-09-25T21:38:49.369Z,13.27
2022-09-25T21:41:18.564Z,13.27
2022-09-25T21:43:46.273Z,13.28
2022-09-25T21:46:15.740Z,13.25
2022-09-25T21:48:48.466Z,13.16
2022-09-25T21:51:17.181Z,13.27
2022-09-25T21:53:44.058Z,13.29
2022-09-25T21:56:17.251Z,13.27
2022-09-25T21:58:44.609Z,13.25
2022-09-25T22:01:20.617Z,13.25
2022-09-25T22:03:49.951Z,13.26
2022-09-25T22:06:40.611Z,13.23
2022-09-25T22:09:14.451Z,13.11
2022-09-25T22:11:42.523Z,13.06
2022-09-25T22:14:15.499Z,12.88
2022-09-25T22:16:43.934Z,12.74
2022-09-25T22:19:22.727Z,12.69
2022-09-25T22:21:51.004Z,12.47
2022-09-25T22:24:18.241Z,12.32
2022-09-25T22:26:47.330Z,12.14
2022-09-25T22:29:14.911Z,12.06
2022-09-25T22:31:44.583Z,11.97
2022-09-25T22:34:21.179Z,11.96
2022-09-25T22:36:49.277Z,11.98
2022-09-25T22:39:18.116Z,12.00
2022-09-25T22:41:45.397Z,11.94
2022-09-25T22:44:12.108Z,11.94
2022-09-25T22:46:38.686Z,11.91
2022-09-25T22:49:05.409Z,12.07
2022-09-25T22:51:32.059Z,11.96
2022-09-25T22:53:58.769Z,11.82
2022-09-25T22:56:30.975Z,11.66
2022-09-25T22:59:01.531Z,11.70
2022-09-25T23:01:33.632Z,11.69
2022-09-25T23:04:01.913Z,11.68
2022-09-25T23:06:30.658Z,11.65
2022-09-25T23:08:59.696Z,11.59
2022-09-25T23:11:26.665Z,11.56
2022-09-25T23:13:58.817Z,11.60
2022-09-25T23:16:25.567Z,11.61
2022-09-25T23:18:52.346Z,11.56
2022-09-25T23:21:19.126Z,11.49
2022-09-25T23:23:45.729Z,11.45
2022-09-25T23:26:12.499Z,11.37
2022-09-25T23:28:40.541Z,11.17
2022-09-25T23:31:12.973Z,11.19
2022-09-25T23:33:40.451Z,11.30
2022-09-25T23:36:10.340Z,11.02
2022-09-25T23:38:38.033Z,11.14
2022-09-25T23:41:21.068Z,11.19
2022-09-25T23:43:49.436Z,11.03
2022-09-25T23:46:18.436Z,11.08
2022-09-25T23:48:45.514Z,11.20
2022-09-25T23:51:13.405Z,11.22
2022-09-25T23:53:41.005Z,11.29
2022-09-25T23:56:14.014Z,11.32
2022-09-25T23:58:40.980Z,11.35
